sensor_id;sensor_type;location;lat;lon;timestamp;pressure;altitude;pressure_sealevel;temperature;humidity
7668;BME280;3876;42.204;24.686;2024-02-28T00:01:59;99921.09;;;8.61;100.00
7668;BME280;3876;42.204;24.686;2024-02-28T00:04:26;99920.28;;;8.59;100.00
7668;BME280;3876;42.204;24.686;2024-02-28T00:06:54;99926.31;;;8.55;100.00
7668;BME280;3876;42.204;24.686;2024-02-28T00:09:21;99937.25;;;8.63;100.00
7668;BME280;3876;42.204;24.686;2024-02-28T00:11:47;99935.59;;;8.62;100.00
7668;BME280;3876;42.204;24.686;2024-02-28T00:14:14;99909.56;;;8.32;100.00
7668;BME280;3876;42.204;24.686;2024-02-28T00:16:41;99933.28;;;8.42;100.00
7668;BME280;3876;42.204;24.686;2024-02-28T00:19:07;99940.88;;;8.47;100.00
7668;BME280;3876;42.204;24.686;2024-02-28T00:21:34;99942.50;;;8.54;100.00
7668;BME280;3876;42.204;24.686;2024-02-28T00:24:02;99942.34;;;8.63;100.00
7668;BME280;3876;42.204;24.686;2024-02-28T00:26:29;99947.63;;;8.52;100.00
7668;BME280;3876;42.204;24.686;2024-02-28T00:28:55;99951.00;;;8.56;100.00
7668;BME280;3876;42.204;24.686;2024-02-28T00:31:22;99950.13;;;8.57;100.00
7668;BME280;3876;42.204;24.686;2024-02-28T00:33:49;99952.63;;;8.60;100.00
7668;BME280;3876;42.204;24.686;2024-02-28T00:36:16;99946.69;;;8.58;100.00
7668;BME280;3876;42.204;24.686;2024-02-28T00:38:43;99947.69;;;8.48;100.00
7668;BME280;3876;42.204;24.686;2024-02-28T00:41:11;99947.03;;;8.32;100.00
7668;BME280;3876;42.204;24.686;2024-02-28T00:43:37;99954.56;;;8.42;100.00
7668;BME280;3876;42.204;24.686;2024-02-28T00:46:04;99947.78;;;8.41;100.00
7668;BME280;3876;42.204;24.686;2024-02-28T00:48:36;99949.38;;;8.49;100.00
7668;BME280;3876;42.204;24.686;2024-02-28T00:51:03;99953.59;;;8.51;100.00
7668;BME280;3876;42.204;24.686;2024-02-28T00:53:30;99955.25;;;8.55;100.00
7668;BME280;3876;42.204;24.686;2024-02-28T00:55:57;99952.63;;;8.60;100.00
7668;BME280;3876;42.204;24.686;2024-02-28T00:58:25;99952.88;;;8.41;100.00
7668;BME280;3876;42.204;24.686;2024-02-28T01:00:53;99949.69;;;8.21;100.00
7668;BME280;3876;42.204;24.686;2024-02-28T01:03:20;99944.50;;;8.27;100.00
7668;BME280;3876;42.204;24.686;2024-02-28T01:05:48;99946.16;;;8.34;100.00
7668;BME280;3876;42.204;24.686;2024-02-28T01:08:15;99956.28;;;8.40;100.00
7668;BME280;3876;42.204;24.686;2024-02-28T01:10:42;99951.25;;;8.34;100.00
7668;BME280;3876;42.204;24.686;2024-02-28T01:13:09;99951.34;;;8.25;100.00
7668;BME280;3876;42.204;24.686;2024-02-28T01:15:39;99931.94;;;8.11;100.00
7668;BME280;3876;42.204;24.686;2024-02-28T01:18:06;99948.06;;;8.14;100.00
7668;BME280;3876;42.204;24.686;2024-02-28T01:20:32;99946.34;;;8.16;100.00
7668;BME280;3876;42.204;24.686;2024-02-28T01:22:59;99946.31;;;8.19;100.00
7668;BME280;3876;42.204;24.686;2024-02-28T01:25:26;99948.84;;;8.21;100.00
7668;BME280;3876;42.204;24.686;2024-02-28T01:27:53;99944.63;;;8.18;100.00
7668;BME280;3876;42.204;24.686;2024-02-28T01:30:19;99944.63;;;8.18;100.00
7668;BME280;3876;42.204;24.686;2024-02-28T01:32:47;99941.28;;;8.13;100.00
7668;BME280;3876;42.204;24.686;2024-02-28T01:35:14;99949.78;;;8.12;100.00
7668;BME280;3876;42.204;24.686;2024-02-28T01:37:41;99949.78;;;8.12;100.00
7668;BME280;3876;42.204;24.686;2024-02-28T01:40:08;99954.88;;;8.15;100.00
7668;BME280;3876;42.204;24.686;2024-02-28T01:42:35;99964.19;;;8.18;100.00
7668;BME280;3876;42.204;24.686;2024-02-28T01:45:02;99954.88;;;8.17;100.00
7668;BME280;3876;42.204;24.686;2024-02-28T01:47:29;99964.34;;;8.07;100.00
7668;BME280;3876;42.204;24.686;2024-02-28T01:49:58;99962.66;;;8.03;100.00
7668;BME280;3876;42.204;24.686;2024-02-28T01:52:25;99960.16;;;8.00;100.00
7668;BME280;3876;42.204;24.686;2024-02-28T01:54:51;99961.88;;;7.95;100.00
7668;BME280;3876;42.204;24.686;2024-02-28T01:57:18;99967.00;;;7.95;100.00
7668;BME280;3876;42.204;24.686;2024-02-28T01:59:46;99964.47;;;7.93;100.00
7668;BME280;3876;42.204;24.686;2024-02-28T02:02:13;99970.41;;;7.97;100.00
7668;BME280;3876;42.204;24.686;2024-02-28T02:04:39;99946.69;;;7.86;100.00
7668;BME280;3876;42.204;24.686;2024-02-28T02:07:08;99968.66;;;7.99;100.00
7668;BME280;3876;42.204;24.686;2024-02-28T02:09:34;99966.09;;;8.01;100.00
7668;BME280;3876;42.204;24.686;2024-02-28T02:12:01;99964.44;;;7.95;100.00
7668;BME280;3876;42.204;24.686;2024-02-28T02:14:28;99969.47;;;8.04;100.00
7668;BME280;3876;42.204;24.686;2024-02-28T02:16:54;99964.41;;;8.00;100.00
7668;BME280;3876;42.204;24.686;2024-02-28T02:19:21;99974.59;;;8.03;100.00
7668;BME280;3876;42.204;24.686;2024-02-28T02:21:50;99975.44;;;8.03;100.00
7668;BME280;3876;42.204;24.686;2024-02-28T02:24:20;99982.28;;;8.01;100.00
7668;BME280;3876;42.204;24.686;2024-02-28T02:26:46;99989.06;;;8.02;100.00
7668;BME280;3876;42.204;24.686;2024-02-28T02:29:15;99994.13;;;8.05;100.00
7668;BME280;3876;42.204;24.686;2024-02-28T02:31:42;100001.81;;;8.04;100.00
7668;BME280;3876;42.204;24.686;2024-02-28T02:34:09;100011.19;;;8.03;100.00
7668;BME280;3876;42.204;24.686;2024-02-28T02:36:35;100014.59;;;8.02;100.00
7668;BME280;3876;42.204;24.686;2024-02-28T02:39:02;100014.59;;;8.02;100.00
7668;BME280;3876;42.204;24.686;2024-02-28T02:41:30;100014.59;;;8.02;100.00
7668;BME280;3876;42.204;24.686;2024-02-28T02:43:57;100017.16;;;8.01;100.00
7668;BME280;3876;42.204;24.686;2024-02-28T02:46:23;100012.91;;;7.98;100.00
7668;BME280;3876;42.204;24.686;2024-02-28T02:48:50;100016.34;;;7.97;100.00
7668;BME280;3876;42.204;24.686;2024-02-28T02:51:18;100010.50;;;7.86;100.00
7668;BME280;3876;42.204;24.686;2024-02-28T02:53:45;100028.28;;;7.92;100.00
7668;BME280;3876;42.204;24.686;2024-02-28T02:56:12;100021.53;;;7.91;100.00
7668;BME280;3876;42.204;24.686;2024-02-28T02:58:40;100031.75;;;7.88;100.00
7668;BME280;3876;42.204;24.686;2024-02-28T03:01:06;100023.25;;;7.86;100.00
7668;BME280;3876;42.204;24.686;2024-02-28T03:03:34;100015.63;;;7.83;100.00
7668;BME280;3876;42.204;24.686;2024-02-28T03:06:03;100028.44;;;7.77;100.00
7668;BME280;3876;42.204;24.686;2024-02-28T03:08:30;100020.81;;;7.72;100.00
7668;BME280;3876;42.204;24.686;2024-02-28T03:10:57;100016.59;;;7.70;100.00
7668;BME280;3876;42.204;24.686;2024-02-28T03:13:24;100020.88;;;7.68;100.00
7668;BME280;3876;42.204;24.686;2024-02-28T03:15:52;100019.19;;;7.64;100.00
7668;BME280;3876;42.204;24.686;2024-02-28T03:18:19;100020.94;;;7.62;100.00
7668;BME280;3876;42.204;24.686;2024-02-28T03:20:45;100021.81;;;7.59;100.00
7668;BME280;3876;42.204;24.686;2024-02-28T03:23:12;100025.22;;;7.57;100.00
7668;BME280;3876;42.204;24.686;2024-02-28T03:25:39;100014.16;;;7.56;100.00
7668;BME280;3876;42.204;24.686;2024-02-28T03:28:06;100020.13;;;7.54;100.00
7668;BME280;3876;42.204;24.686;2024-02-28T03:30:32;100021.03;;;7.47;100.00
7668;BME280;3876;42.204;24.686;2024-02-28T03:33:00;100016.81;;;7.46;100.00
7668;BME280;3876;42.204;24.686;2024-02-28T03:35:27;99990.59;;;7.28;100.00
7668;BME280;3876;42.204;24.686;2024-02-28T03:37:54;100013.44;;;7.40;100.00
7668;BME280;3876;42.204;24.686;2024-02-28T03:40:20;100019.38;;;7.41;100.00
7668;BME280;3876;42.204;24.686;2024-02-28T03:42:47;100019.41;;;7.39;100.00
7668;BME280;3876;42.204;24.686;2024-02-28T03:45:14;100018.59;;;7.34;100.00
7668;BME280;3876;42.204;24.686;2024-02-28T03:47:41;100022.03;;;7.27;100.00
7668;BME280;3876;42.204;24.686;2024-02-28T03:50:09;100022.06;;;7.26;100.00
7668;BME280;3876;42.204;24.686;2024-02-28T03:52:35;100008.53;;;7.16;100.00
7668;BME280;3876;42.204;24.686;2024-02-28T03:55:02;100021.22;;;7.21;100.00
7668;BME280;3876;42.204;24.686;2024-02-28T03:57:29;100019.56;;;7.17;100.00
7668;BME280;3876;42.204;24.686;2024-02-28T03:59:56;100026.34;;;7.18;100.00
7668;BME280;3876;42.204;24.686;2024-02-28T04:02:23;100035.69;;;7.17;100.00
7668;BME280;3876;42.204;24.686;2024-02-28T04:04:50;100042.50;;;7.15;100.00
7668;BME280;3876;42.204;24.686;2024-02-28T04:07:18;100042.53;;;7.12;100.00
7668;BME280;3876;42.204;24.686;2024-02-28T04:09:44;100041.72;;;7.10;100.00
7668;BME280;3876;42.204;24.686;2024-02-28T04:12:11;100046.84;;;7.04;100.00
7668;BME280;3876;42.204;24.686;2024-02-28T04:14:38;100018.94;;;6.77;100.00
7668;BME280;3876;42.204;24.686;2024-02-28T04:17:04;100045.25;;;6.82;100.00
7668;BME280;3876;42.204;24.686;2024-02-28T04:19:32;100033.41;;;6.72;100.00
7668;BME280;3876;42.204;24.686;2024-02-28T04:22:01;100044.41;;;6.80;100.00
7668;BME280;3876;42.204;24.686;2024-02-28T04:24:29;100045.25;;;6.79;100.00
7668;BME280;3876;42.204;24.686;2024-02-28T04:26:57;100037.66;;;6.73;100.00
7668;BME280;3876;42.204;24.686;2024-02-28T04:29:24;100034.28;;;6.68;100.00
7668;BME280;3876;42.204;24.686;2024-02-28T04:31:51;100036.84;;;6.68;100.00
7668;BME280;3876;42.204;24.686;2024-02-28T04:34:18;100037.69;;;6.65;100.00
7668;BME280;3876;42.204;24.686;2024-02-28T04:36:44;100037.72;;;6.58;100.00
7668;BME280;3876;42.204;24.686;2024-02-28T04:39:11;100041.09;;;6.57;100.00
7668;BME280;3876;42.204;24.686;2024-02-28T04:41:39;100041.97;;;6.54;100.00
7668;BME280;3876;42.204;24.686;2024-02-28T04:44:07;100037.72;;;6.55;100.00
7668;BME280;3876;42.204;24.686;2024-02-28T04:46:34;100041.13;;;6.54;100.00
7668;BME280;3876;42.204;24.686;2024-02-28T04:49:01;100041.97;;;6.54;100.00
7668;BME280;3876;42.204;24.686;2024-02-28T04:51:27;100047.91;;;6.55;100.00
7668;BME280;3876;42.204;24.686;2024-02-28T04:53:54;100050.47;;;6.55;100.00
7668;BME280;3876;42.204;24.686;2024-02-28T04:56:21;100054.72;;;6.56;100.00
7668;BME280;3876;42.204;24.686;2024-02-28T04:58:50;100051.28;;;6.57;100.00
7668;BME280;3876;42.204;24.686;2024-02-28T05:01:16;100039.44;;;6.56;100.00
7668;BME280;3876;42.204;24.686;2024-02-28T05:03:43;100040.31;;;6.44;100.00
7668;BME280;3876;42.204;24.686;2024-02-28T05:06:10;100037.78;;;6.33;100.00
7668;BME280;3876;42.204;24.686;2024-02-28T05:08:37;100041.22;;;6.32;100.00
7668;BME280;3876;42.204;24.686;2024-02-28T05:11:04;100037.81;;;6.27;100.00
7668;BME280;3876;42.204;24.686;2024-02-28T05:13:31;100041.22;;;6.20;100.00
7668;BME280;3876;42.204;24.686;2024-02-28T05:15:59;100050.59;;;6.17;100.00
7668;BME280;3876;42.204;24.686;2024-02-28T05:18:26;100055.66;;;6.18;100.00
7668;BME280;3876;42.204;24.686;2024-02-28T05:20:53;100058.19;;;6.21;100.00
7668;BME280;3876;42.204;24.686;2024-02-28T05:23:20;100054.81;;;6.22;100.00
7668;BME280;3876;42.204;24.686;2024-02-28T05:25:47;100064.16;;;6.23;100.00
7668;BME280;3876;42.204;24.686;2024-02-28T05:28:13;100057.34;;;6.24;100.00
7668;BME280;3876;42.204;24.686;2024-02-28T05:30:40;100067.53;;;6.30;100.00
7668;BME280;3876;42.204;24.686;2024-02-28T05:33:08;100076.00;;;6.35;100.00
7668;BME280;3876;42.204;24.686;2024-02-28T05:35:37;100085.28;;;6.44;100.00
7668;BME280;3876;42.204;24.686;2024-02-28T05:38:03;100087.00;;;6.45;100.00
7668;BME280;3876;42.204;24.686;2024-02-28T05:40:30;100077.63;;;6.50;100.00
7668;BME280;3876;42.204;24.686;2024-02-28T05:42:57;100084.44;;;6.54;100.00
7668;BME280;3876;42.204;24.686;2024-02-28T05:45:23;100084.41;;;6.61;100.00
7668;BME280;3876;42.204;24.686;2024-02-28T05:47:50;100086.09;;;6.64;100.00
7668;BME280;3876;42.204;24.686;2024-02-28T05:50:18;100085.25;;;6.68;100.00
7668;BME280;3876;42.204;24.686;2024-02-28T05:52:45;100091.16;;;6.71;100.00
7668;BME280;3876;42.204;24.686;2024-02-28T05:55:12;100085.22;;;6.74;100.00
7668;BME280;3876;42.204;24.686;2024-02-28T05:57:38;100096.22;;;6.80;100.00
7668;BME280;3876;42.204;24.686;2024-02-28T06:00:07;100090.25;;;6.83;100.00
7668;BME280;3876;42.204;24.686;2024-02-28T06:02:35;100097.06;;;6.87;100.00
7668;BME280;3876;42.204;24.686;2024-02-28T06:05:03;100090.22;;;6.89;100.00
7668;BME280;3876;42.204;24.686;2024-02-28T06:07:31;100095.28;;;6.98;100.00
7668;BME280;3876;42.204;24.686;2024-02-28T06:09:58;100094.44;;;6.99;100.00
7668;BME280;3876;42.204;24.686;2024-02-28T06:12:25;100102.91;;;7.06;100.00
7668;BME280;3876;42.204;24.686;2024-02-28T06:14:51;100100.34;;;7.10;100.00
7668;BME280;3876;42.204;24.686;2024-02-28T06:17:20;100097.78;;;7.13;100.00
7668;BME280;3876;42.204;24.686;2024-02-28T06:19:46;100110.53;;;7.10;100.00
7668;BME280;3876;42.204;24.686;2024-02-28T06:22:13;100106.31;;;7.05;100.00
7668;BME280;3876;42.204;24.686;2024-02-28T06:24:42;100102.91;;;7.06;100.00
7668;BME280;3876;42.204;24.686;2024-02-28T06:27:08;100121.59;;;7.08;100.00
7668;BME280;3876;42.204;24.686;2024-02-28T06:29:37;100114.84;;;6.98;100.00
7668;BME280;3876;42.204;24.686;2024-02-28T06:32:04;100107.25;;;6.85;100.00
7668;BME280;3876;42.204;24.686;2024-02-28T06:34:31;100118.22;;;7.01;100.00
7668;BME280;3876;42.204;24.686;2024-02-28T06:36:58;100102.09;;;6.96;100.00
7668;BME280;3876;42.204;24.686;2024-02-28T06:39:24;100132.66;;;7.05;100.00
7668;BME280;3876;42.204;24.686;2024-02-28T06:41:52;100131.75;;;7.15;100.00
7668;BME280;3876;42.204;24.686;2024-02-28T06:44:19;100137.69;;;7.23;100.00
7668;BME280;3876;42.204;24.686;2024-02-28T06:46:46;100130.00;;;7.29;100.00
7668;BME280;3876;42.204;24.686;2024-02-28T06:49:13;100127.47;;;7.26;100.00
7668;BME280;3876;42.204;24.686;2024-02-28T06:51:40;100134.31;;;7.15;100.00
7668;BME280;3876;42.204;24.686;2024-02-28T06:54:06;100130.84;;;7.25;100.00
7668;BME280;3876;42.204;24.686;2024-02-28T06:56:33;100130.84;;;7.28;100.00
7668;BME280;3876;42.204;24.686;2024-02-28T06:59:01;100130.84;;;7.28;100.00
7668;BME280;3876;42.204;24.686;2024-02-28T07:01:29;100122.38;;;7.26;100.00
7668;BME280;3876;42.204;24.686;2024-02-28T07:03:56;100133.41;;;7.27;100.00
7668;BME280;3876;42.204;24.686;2024-02-28T07:06:22;100133.41;;;7.28;100.00
7668;BME280;3876;42.204;24.686;2024-02-28T07:08:50;100138.41;;;7.40;100.00
7668;BME280;3876;42.204;24.686;2024-02-28T07:11:16;100139.25;;;7.46;100.00
7668;BME280;3876;42.204;24.686;2024-02-28T07:13:43;100134.94;;;7.54;100.00
7668;BME280;3876;42.204;24.686;2024-02-28T07:16:11;100122.22;;;7.51;100.00
7668;BME280;3876;42.204;24.686;2024-02-28T07:18:38;100142.53;;;7.69;100.00
7668;BME280;3876;42.204;24.686;2024-02-28T07:21:04;100144.09;;;7.82;100.00
7668;BME280;3876;42.204;24.686;2024-02-28T07:23:32;100149.94;;;7.99;100.00
7668;BME280;3876;42.204;24.686;2024-02-28T07:25:58;100147.28;;;8.11;100.00
7668;BME280;3876;42.204;24.686;2024-02-28T07:28:25;100151.38;;;8.27;100.00
7668;BME280;3876;42.204;24.686;2024-02-28T07:30:52;100152.09;;;8.48;100.00
7668;BME280;3876;42.204;24.686;2024-02-28T07:33:20;100159.59;;;8.66;100.00
7668;BME280;3876;42.204;24.686;2024-02-28T07:35:47;100151.91;;;8.69;100.00
7668;BME280;3876;42.204;24.686;2024-02-28T07:38:14;100159.28;;;8.94;100.00
7668;BME280;3876;42.204;24.686;2024-02-28T07:40:42;100154.88;;;9.07;100.00
7668;BME280;3876;42.204;24.686;2024-02-28T07:43:09;100156.38;;;9.23;100.00
7668;BME280;3876;42.204;24.686;2024-02-28T07:45:36;100149.53;;;9.22;100.00
7668;BME280;3876;42.204;24.686;2024-02-28T07:48:03;100150.88;;;9.50;100.00
7668;BME280;3876;42.204;24.686;2024-02-28T07:50:31;100140.47;;;9.63;100.00
7668;BME280;3876;42.204;24.686;2024-02-28T07:52:58;100156.38;;;9.83;100.00
7668;BME280;3876;42.204;24.686;2024-02-28T07:55:24;100136.56;;;9.94;100.00
7668;BME280;3876;42.204;24.686;2024-02-28T07:57:51;100149.00;;;10.18;100.00
7668;BME280;3876;42.204;24.686;2024-02-28T08:00:19;100143.63;;;10.33;100.00
7668;BME280;3876;42.204;24.686;2024-02-28T08:02:46;100136.53;;;10.49;100.00
7668;BME280;3876;42.204;24.686;2024-02-28T08:05:13;100123.59;;;10.53;100.00
7668;BME280;3876;42.204;24.686;2024-02-28T08:07:41;100145.19;;;10.88;100.00
7668;BME280;3876;42.204;24.686;2024-02-28T08:10:08;100136.66;;;10.86;100.00
7668;BME280;3876;42.204;24.686;2024-02-28T08:12:36;100145.19;;;10.88;100.00
7668;BME280;3876;42.204;24.686;2024-02-28T08:15:03;100146.44;;;11.10;100.00
7668;BME280;3876;42.204;24.686;2024-02-28T08:17:31;100144.38;;;11.27;100.00
7668;BME280;3876;42.204;24.686;2024-02-28T08:19:57;100140.59;;;11.43;100.00
7668;BME280;3876;42.204;24.686;2024-02-28T08:22:24;100133.50;;;11.54;100.00
7668;BME280;3876;42.204;24.686;2024-02-28T08:24:52;100143.09;;;11.85;100.00
7668;BME280;3876;42.204;24.686;2024-02-28T08:27:19;100139.28;;;12.01;100.00
7668;BME280;3876;42.204;24.686;2024-02-28T08:29:48;100143.09;;;12.20;100.00
7668;BME280;3876;42.204;24.686;2024-02-28T08:32:16;100149.72;;;12.30;99.68
7668;BME280;3876;42.204;24.686;2024-02-28T08:34:43;100117.31;;;12.23;98.49
7668;BME280;3876;42.204;24.686;2024-02-28T08:37:11;100139.28;;;12.35;98.92
7668;BME280;3876;42.204;24.686;2024-02-28T08:39:38;100140.09;;;12.37;99.57
7668;BME280;3876;42.204;24.686;2024-02-28T08:42:07;100151.63;;;12.54;99.37
7668;BME280;3876;42.204;24.686;2024-02-28T08:44:33;100138.16;;;12.77;98.93
7668;BME280;3876;42.204;24.686;2024-02-28T08:47:00;100141.56;;;12.78;98.24
7668;BME280;3876;42.204;24.686;2024-02-28T08:49:27;100149.28;;;12.78;97.30
7668;BME280;3876;42.204;24.686;2024-02-28T08:51:54;100134.81;;;12.74;98.09
7668;BME280;3876;42.204;24.686;2024-02-28T08:54:22;100144.31;;;12.72;97.92
7668;BME280;3876;42.204;24.686;2024-02-28T08:56:48;100146.38;;;12.90;99.86
7668;BME280;3876;42.204;24.686;2024-02-28T08:59:17;100136.72;;;12.98;97.24
7668;BME280;3876;42.204;24.686;2024-02-28T09:01:44;100141.63;;;13.07;96.68
7668;BME280;3876;42.204;24.686;2024-02-28T09:04:10;100146.81;;;13.35;95.11
7668;BME280;3876;42.204;24.686;2024-02-28T09:06:37;100147.66;;;13.35;95.46
7668;BME280;3876;42.204;24.686;2024-02-28T09:09:04;100145.63;;;13.46;95.80
7668;BME280;3876;42.204;24.686;2024-02-28T09:11:30;100141.66;;;13.64;95.51
7668;BME280;3876;42.204;24.686;2024-02-28T09:13:57;100143.50;;;13.87;95.16
7668;BME280;3876;42.204;24.686;2024-02-28T09:16:25;100136.38;;;13.95;94.27
7668;BME280;3876;42.204;24.686;2024-02-28T09:18:52;100143.41;;;13.90;93.19
7668;BME280;3876;42.204;24.686;2024-02-28T09:21:19;100135.03;;;13.83;93.51
7668;BME280;3876;42.204;24.686;2024-02-28T09:23:45;100137.56;;;13.85;92.28
7668;BME280;3876;42.204;24.686;2024-02-28T09:26:12;100118.44;;;13.92;95.27
7668;BME280;3876;42.204;24.686;2024-02-28T09:28:39;100133.94;;;14.16;92.72
7668;BME280;3876;42.204;24.686;2024-02-28T09:31:06;100127.84;;;13.93;92.94
7668;BME280;3876;42.204;24.686;2024-02-28T09:33:36;100139.44;;;14.06;91.90
7668;BME280;3876;42.204;24.686;2024-02-28T09:36:04;100131.59;;;14.09;92.43
7668;BME280;3876;42.204;24.686;2024-02-28T09:38:31;100117.94;;;14.07;91.43
7668;BME280;3876;42.204;24.686;2024-02-28T09:41:01;100125.97;;;13.98;91.73
7668;BME280;3876;42.204;24.686;2024-02-28T09:43:29;100128.84;;;14.15;91.40
7668;BME280;3876;42.204;24.686;2024-02-28T09:45:59;100120.91;;;14.21;92.13
7668;BME280;3876;42.204;24.686;2024-02-28T09:48:30;100117.06;;;14.33;91.26
7668;BME280;3876;42.204;24.686;2024-02-28T09:50:59;100115.88;;;14.43;90.14
7668;BME280;3876;42.204;24.686;2024-02-28T09:53:26;100109.34;;;14.57;90.60
7668;BME280;3876;42.204;24.686;2024-02-28T09:55:53;100105.44;;;14.70;94.73
7668;BME280;3876;42.204;24.686;2024-02-28T09:58:20;100092.66;;;14.91;90.11
7668;BME280;3876;42.204;24.686;2024-02-28T10:00:48;100094.13;;;14.98;88.46
7668;BME280;3876;42.204;24.686;2024-02-28T10:03:17;100085.53;;;14.97;89.30
7668;BME280;3876;42.204;24.686;2024-02-28T10:05:46;100090.19;;;15.11;88.74
7668;BME280;3876;42.204;24.686;2024-02-28T10:08:14;100086.38;;;14.98;88.26
7668;BME280;3876;42.204;24.686;2024-02-28T10:10:47;100079.84;;;15.11;87.99
7668;BME280;3876;42.204;24.686;2024-02-28T10:13:16;100082.63;;;15.28;87.52
7668;BME280;3876;42.204;24.686;2024-02-28T10:15:43;100058.34;;;15.32;88.29
7668;BME280;3876;42.204;24.686;2024-02-28T10:18:10;100083.16;;;15.59;87.03
7668;BME280;3876;42.204;24.686;2024-02-28T10:20:37;100080.91;;;15.72;86.99
7668;BME280;3876;42.204;24.686;2024-02-28T10:23:05;100066.19;;;15.52;86.35
7668;BME280;3876;42.204;24.686;2024-02-28T10:25:41;100067.53;;;15.62;86.44
7668;BME280;3876;42.204;24.686;2024-02-28T10:28:09;100061.84;;;15.74;86.46
7668;BME280;3876;42.204;24.686;2024-02-28T10:30:38;100067.09;;;15.93;88.68
7668;BME280;3876;42.204;24.686;2024-02-28T10:33:10;100052.97;;;16.02;90.28
7668;BME280;3876;42.204;24.686;2024-02-28T10:35:37;100052.69;;;16.28;87.03
7668;BME280;3876;42.204;24.686;2024-02-28T10:38:05;100056.31;;;16.44;84.82
7668;BME280;3876;42.204;24.686;2024-02-28T10:40:32;100052.94;;;16.42;83.79
7668;BME280;3876;42.204;24.686;2024-02-28T10:43:00;100039.97;;;15.83;83.61
7668;BME280;3876;42.204;24.686;2024-02-28T10:45:30;100042.91;;;15.74;85.46
7668;BME280;3876;42.204;24.686;2024-02-28T10:47:57;100035.75;;;15.81;85.59
7668;BME280;3876;42.204;24.686;2024-02-28T10:50:24;100037.59;;;15.57;85.53
7668;BME280;3876;42.204;24.686;2024-02-28T10:52:53;100028.75;;;15.62;86.38
7668;BME280;3876;42.204;24.686;2024-02-28T10:55:21;100023.75;;;15.80;87.12
7668;BME280;3876;42.204;24.686;2024-02-28T10:57:54;100021.31;;;15.75;85.14
7668;BME280;3876;42.204;24.686;2024-02-28T11:00:26;100019.38;;;15.60;85.70
7668;BME280;3876;42.204;24.686;2024-02-28T11:02:53;100016.00;;;15.58;86.24
7668;BME280;3876;42.204;24.686;2024-02-28T11:05:20;100012.09;;;15.69;86.33
7668;BME280;3876;42.204;24.686;2024-02-28T11:07:51;100008.28;;;15.78;84.95
7668;BME280;3876;42.204;24.686;2024-02-28T11:10:17;99997.66;;;15.64;86.31
7668;BME280;3876;42.204;24.686;2024-02-28T11:12:54;99969.44;;;15.59;85.84
7668;BME280;3876;42.204;24.686;2024-02-28T11:15:26;99993.06;;;15.70;86.61
7668;BME280;3876;42.204;24.686;2024-02-28T11:17:53;99996.56;;;15.90;85.83
7668;BME280;3876;42.204;24.686;2024-02-28T11:20:20;99987.78;;;15.94;85.65
7668;BME280;3876;42.204;24.686;2024-02-28T11:22:48;99983.00;;;16.05;84.80
7668;BME280;3876;42.204;24.686;2024-02-28T11:25:14;99987.22;;;16.26;87.25
7668;BME280;3876;42.204;24.686;2024-02-28T11:27:48;99983.47;;;16.33;84.70
7668;BME280;3876;42.204;24.686;2024-02-28T11:30:15;99981.44;;;16.21;83.99
7668;BME280;3876;42.204;24.686;2024-02-28T11:32:43;99977.44;;;16.14;84.90
7668;BME280;3876;42.204;24.686;2024-02-28T11:35:10;99973.53;;;16.24;84.54
7668;BME280;3876;42.204;24.686;2024-02-28T11:37:38;99979.75;;;16.20;84.51
7668;BME280;3876;42.204;24.686;2024-02-28T11:40:09;99964.59;;;16.31;84.01
7668;BME280;3876;42.204;24.686;2024-02-28T11:42:38;99965.03;;;16.41;85.19
7668;BME280;3876;42.204;24.686;2024-02-28T11:45:06;99955.69;;;16.57;84.31
7668;BME280;3876;42.204;24.686;2024-02-28T11:47:36;99952.66;;;16.47;83.45
7668;BME280;3876;42.204;24.686;2024-02-28T11:50:06;99950.66;;;16.15;83.79
7668;BME280;3876;42.204;24.686;2024-02-28T11:52:33;99940.25;;;16.35;84.00
7668;BME280;3876;42.204;24.686;2024-02-28T11:55:00;99942.06;;;16.52;84.48
7668;BME280;3876;42.204;24.686;2024-02-28T11:57:27;99937.72;;;16.52;84.74
7668;BME280;3876;42.204;24.686;2024-02-28T12:00:02;99944.38;;;16.39;83.98
7668;BME280;3876;42.204;24.686;2024-02-28T12:02:29;99942.50;;;16.43;83.16
7668;BME280;3876;42.204;24.686;2024-02-28T12:05:00;99930.88;;;16.51;83.21
7668;BME280;3876;42.204;24.686;2024-02-28T12:07:28;99926.22;;;16.59;82.60
7668;BME280;3876;42.204;24.686;2024-02-28T12:09:55;99930.50;;;16.60;82.29
7668;BME280;3876;42.204;24.686;2024-02-28T12:12:22;99926.44;;;16.73;84.35
7668;BME280;3876;42.204;24.686;2024-02-28T12:14:50;99924.75;;;16.72;82.69
7668;BME280;3876;42.204;24.686;2024-02-28T12:17:16;99921.72;;;16.82;82.39
7668;BME280;3876;42.204;24.686;2024-02-28T12:19:44;99904.97;;;16.89;81.65
7668;BME280;3876;42.204;24.686;2024-02-28T12:22:11;99909.72;;;16.98;79.50
7668;BME280;3876;42.204;24.686;2024-02-28T12:24:39;99913.84;;;17.02;80.76
7668;BME280;3876;42.204;24.686;2024-02-28T12:27:05;99910.41;;;17.01;79.24
7668;BME280;3876;42.204;24.686;2024-02-28T12:29:32;99905.22;;;17.01;79.44
7668;BME280;3876;42.204;24.686;2024-02-28T12:31:59;99909.13;;;17.10;80.62
7668;BME280;3876;42.204;24.686;2024-02-28T12:34:25;99915.97;;;17.11;79.91
7668;BME280;3876;42.204;24.686;2024-02-28T12:36:53;99913.84;;;17.19;80.31
7668;BME280;3876;42.204;24.686;2024-02-28T12:39:20;99896.94;;;17.29;81.32
7668;BME280;3876;42.204;24.686;2024-02-28T12:41:49;99879.88;;;17.25;78.53
7668;BME280;3876;42.204;24.686;2024-02-28T12:44:15;99893.81;;;17.40;77.90
7668;BME280;3876;42.204;24.686;2024-02-28T12:46:42;99894.13;;;17.51;77.66
7668;BME280;3876;42.204;24.686;2024-02-28T12:49:09;99900.75;;;17.39;77.82
7668;BME280;3876;42.204;24.686;2024-02-28T12:51:37;99881.53;;;17.26;78.88
7668;BME280;3876;42.204;24.686;2024-02-28T12:54:04;99894.88;;;17.36;78.08
7668;BME280;3876;42.204;24.686;2024-02-28T12:56:31;99890.09;;;17.28;78.22
7668;BME280;3876;42.204;24.686;2024-02-28T12:58:59;99878.56;;;17.16;77.78
7668;BME280;3876;42.204;24.686;2024-02-28T13:01:26;99886.28;;;17.18;77.26
7668;BME280;3876;42.204;24.686;2024-02-28T13:03:53;99884.28;;;17.23;78.34